sensor_id;sensor_type;location;lat;lon;timestamp;P1;durP1;ratioP1;P2;durP2;ratioP2
48363;SDS011;34170;54.364;18.582;2022-12-18T00:01:34;59.03;;;24.00;;
48363;SDS011;34170;54.364;18.582;2022-12-18T00:04:03;62.63;;;24.38;;
48363;SDS011;34170;54.364;18.582;2022-12-18T00:06:35;60.70;;;23.00;;
48363;SDS011;34170;54.364;18.582;2022-12-18T00:09:03;67.22;;;25.10;;
48363;SDS011;34170;54.364;18.582;2022-12-18T00:11:30;62.30;;;25.48;;
48363;SDS011;34170;54.364;18.582;2022-12-18T00:13:59;65.85;;;25.67;;
48363;SDS011;34170;54.364;18.582;2022-12-18T00:16:27;63.72;;;26.20;;
48363;SDS011;34170;54.364;18.582;2022-12-18T00:18:58;80.43;;;35.47;;
48363;SDS011;34170;54.364;18.582;2022-12-18T00:21:27;64.85;;;23.55;;
48363;SDS011;34170;54.364;18.582;2022-12-18T00:23:55;68.22;;;24.98;;
48363;SDS011;34170;54.364;18.582;2022-12-18T00:26:33;65.13;;;25.38;;
48363;SDS011;34170;54.364;18.582;2022-12-18T00:29:03;71.20;;;25.05;;
48363;SDS011;34170;54.364;18.582;2022-12-18T00:31:32;65.57;;;24.00;;
48363;SDS011;34170;54.364;18.582;2022-12-18T00:34:01;70.10;;;26.08;;
48363;SDS011;34170;54.364;18.582;2022-12-18T00:36:30;62.95;;;23.27;;
48363;SDS011;34170;54.364;18.582;2022-12-18T00:39:01;68.95;;;23.80;;
48363;SDS011;34170;54.364;18.582;2022-12-18T00:41:31;50.78;;;17.98;;
48363;SDS011;34170;54.364;18.582;2022-12-18T00:44:17;60.33;;;23.75;;
48363;SDS011;34170;54.364;18.582;2022-12-18T00:46:46;65.47;;;25.20;;
48363;SDS011;34170;54.364;18.582;2022-12-18T00:49:15;67.03;;;23.48;;
48363;SDS011;34170;54.364;18.582;2022-12-18T00:51:43;70.65;;;22.23;;
48363;SDS011;34170;54.364;18.582;2022-12-18T00:54:10;60.53;;;21.90;;
48363;SDS011;34170;54.364;18.582;2022-12-18T00:56:38;59.97;;;22.92;;
48363;SDS011;34170;54.364;18.582;2022-12-18T00:59:15;68.65;;;22.73;;
48363;SDS011;34170;54.364;18.582;2022-12-18T01:01:43;73.40;;;24.42;;
48363;SDS011;34170;54.364;18.582;2022-12-18T01:04:11;66.90;;;22.85;;
48363;SDS011;34170;54.364;18.582;2022-12-18T01:06:39;57.55;;;23.10;;
48363;SDS011;34170;54.364;18.582;2022-12-18T01:09:07;64.97;;;21.95;;
48363;SDS011;34170;54.364;18.582;2022-12-18T01:11:36;66.57;;;23.30;;
48363;SDS011;34170;54.364;18.582;2022-12-18T01:14:03;58.65;;;21.42;;
48363;SDS011;34170;54.364;18.582;2022-12-18T01:16:31;64.07;;;20.88;;
48363;SDS011;34170;54.364;18.582;2022-12-18T01:18:58;61.10;;;20.65;;
48363;SDS011;34170;54.364;18.582;2022-12-18T01:21:27;62.85;;;21.65;;
48363;SDS011;34170;54.364;18.582;2022-12-18T01:23:55;60.60;;;21.15;;
48363;SDS011;34170;54.364;18.582;2022-12-18T01:26:23;58.47;;;20.20;;
48363;SDS011;34170;54.364;18.582;2022-12-18T01:28:53;65.88;;;22.20;;
48363;SDS011;34170;54.364;18.582;2022-12-18T01:31:24;61.78;;;21.42;;
48363;SDS011;34170;54.364;18.582;2022-12-18T01:33:54;65.53;;;20.97;;
48363;SDS011;34170;54.364;18.582;2022-12-18T01:36:23;61.30;;;21.08;;
48363;SDS011;34170;54.364;18.582;2022-12-18T01:38:53;54.67;;;20.20;;
48363;SDS011;34170;54.364;18.582;2022-12-18T01:41:23;56.97;;;21.20;;
48363;SDS011;34170;54.364;18.582;2022-12-18T01:43:53;62.33;;;20.08;;
48363;SDS011;34170;54.364;18.582;2022-12-18T01:46:24;51.70;;;18.05;;
48363;SDS011;34170;54.364;18.582;2022-12-18T01:48:56;52.72;;;19.80;;
48363;SDS011;34170;54.364;18.582;2022-12-18T01:51:27;57.20;;;20.08;;
48363;SDS011;34170;54.364;18.582;2022-12-18T01:53:57;60.03;;;18.42;;
48363;SDS011;34170;54.364;18.582;2022-12-18T01:56:26;54.90;;;21.00;;
48363;SDS011;34170;54.364;18.582;2022-12-18T01:58:54;56.70;;;21.85;;
48363;SDS011;34170;54.364;18.582;2022-12-18T02:01:28;51.85;;;19.48;;
48363;SDS011;34170;54.364;18.582;2022-12-18T02:09:59;57.72;;;20.02;;
48363;SDS011;34170;54.364;18.582;2022-12-18T02:12:31;55.25;;;18.98;;
48363;SDS011;34170;54.364;18.582;2022-12-18T02:18:08;61.58;;;21.48;;
48363;SDS011;34170;54.364;18.582;2022-12-18T02:23:36;51.53;;;19.15;;
48363;SDS011;34170;54.364;18.582;2022-12-18T02:26:19;62.47;;;19.33;;
48363;SDS011;34170;54.364;18.582;2022-12-18T02:28:59;55.13;;;20.45;;
48363;SDS011;34170;54.364;18.582;2022-12-18T02:31:37;49.28;;;19.52;;
48363;SDS011;34170;54.364;18.582;2022-12-18T02:34:09;52.90;;;20.02;;
48363;SDS011;34170;54.364;18.582;2022-12-18T02:36:40;55.05;;;20.17;;
48363;SDS011;34170;54.364;18.582;2022-12-18T02:39:11;52.80;;;20.08;;
48363;SDS011;34170;54.364;18.582;2022-12-18T02:41:51;64.50;;;21.20;;
48363;SDS011;34170;54.364;18.582;2022-12-18T02:44:21;56.45;;;19.27;;
48363;SDS011;34170;54.364;18.582;2022-12-18T02:46:51;61.38;;;19.92;;
48363;SDS011;34170;54.364;18.582;2022-12-18T02:49:31;54.42;;;18.48;;
48363;SDS011;34170;54.364;18.582;2022-12-18T02:57:41;52.05;;;19.80;;
48363;SDS011;34170;54.364;18.582;2022-12-18T03:03:31;51.38;;;19.48;;
48363;SDS011;34170;54.364;18.582;2022-12-18T03:06:07;50.28;;;18.15;;
48363;SDS011;34170;54.364;18.582;2022-12-18T03:08:41;55.65;;;20.00;;
48363;SDS011;34170;54.364;18.582;2022-12-18T03:11:13;47.55;;;18.40;;
48363;SDS011;34170;54.364;18.582;2022-12-18T03:16:22;50.13;;;17.42;;
48363;SDS011;34170;54.364;18.582;2022-12-18T03:18:58;42.97;;;17.92;;
48363;SDS011;34170;54.364;18.582;2022-12-18T03:21:32;44.75;;;17.05;;
48363;SDS011;34170;54.364;18.582;2022-12-18T03:24:08;45.60;;;16.80;;
48363;SDS011;34170;54.364;18.582;2022-12-18T03:26:40;42.80;;;15.85;;
48363;SDS011;34170;54.364;18.582;2022-12-18T03:29:16;46.17;;;17.52;;
48363;SDS011;34170;54.364;18.582;2022-12-18T03:31:51;49.78;;;17.00;;
48363;SDS011;34170;54.364;18.582;2022-12-18T03:34:29;43.42;;;15.55;;
48363;SDS011;34170;54.364;18.582;2022-12-18T03:37:02;46.38;;;16.27;;
48363;SDS011;34170;54.364;18.582;2022-12-18T03:39:31;46.15;;;18.23;;
48363;SDS011;34170;54.364;18.582;2022-12-18T03:50:18;38.10;;;15.50;;
48363;SDS011;34170;54.364;18.582;2022-12-18T03:52:57;44.13;;;15.30;;
48363;SDS011;34170;54.364;18.582;2022-12-18T03:55:47;46.92;;;17.05;;
48363;SDS011;34170;54.364;18.582;2022-12-18T03:58:19;39.20;;;13.90;;
48363;SDS011;34170;54.364;18.582;2022-12-18T04:00:58;41.67;;;16.25;;
48363;SDS011;34170;54.364;18.582;2022-12-18T04:05:59;37.78;;;14.32;;
48363;SDS011;34170;54.364;18.582;2022-12-18T04:08:28;43.83;;;14.60;;
48363;SDS011;34170;54.364;18.582;2022-12-18T04:11:03;37.10;;;14.43;;
48363;SDS011;34170;54.364;18.582;2022-12-18T04:13:34;38.80;;;13.88;;
48363;SDS011;34170;54.364;18.582;2022-12-18T04:16:07;37.88;;;14.25;;
48363;SDS011;34170;54.364;18.582;2022-12-18T04:18:40;39.00;;;14.43;;
48363;SDS011;34170;54.364;18.582;2022-12-18T04:21:08;28.00;;;12.57;;
48363;SDS011;34170;54.364;18.582;2022-12-18T04:23:36;35.03;;;12.52;;
48363;SDS011;34170;54.364;18.582;2022-12-18T04:26:04;34.05;;;13.43;;
48363;SDS011;34170;54.364;18.582;2022-12-18T04:28:43;35.83;;;13.45;;
48363;SDS011;34170;54.364;18.582;2022-12-18T04:31:11;32.78;;;13.13;;
48363;SDS011;34170;54.364;18.582;2022-12-18T04:33:39;32.35;;;12.82;;
48363;SDS011;34170;54.364;18.582;2022-12-18T04:36:08;30.60;;;11.65;;
48363;SDS011;34170;54.364;18.582;2022-12-18T04:38:36;27.05;;;11.95;;
48363;SDS011;34170;54.364;18.582;2022-12-18T04:41:08;22.92;;;9.57;;
48363;SDS011;34170;54.364;18.582;2022-12-18T04:43:36;29.38;;;11.57;;
48363;SDS011;34170;54.364;18.582;2022-12-18T04:46:07;36.35;;;12.75;;
48363;SDS011;34170;54.364;18.582;2022-12-18T04:48:35;32.30;;;11.90;;
48363;SDS011;34170;54.364;18.582;2022-12-18T04:51:04;31.08;;;11.00;;
48363;SDS011;34170;54.364;18.582;2022-12-18T04:53:32;28.17;;;11.63;;
48363;SDS011;34170;54.364;18.582;2022-12-18T04:56:07;26.05;;;11.70;;
48363;SDS011;34170;54.364;18.582;2022-12-18T04:58:40;29.17;;;11.63;;
48363;SDS011;34170;54.364;18.582;2022-12-18T05:01:08;28.88;;;10.77;;
48363;SDS011;34170;54.364;18.582;2022-12-18T05:03:37;28.98;;;11.95;;
48363;SDS011;34170;54.364;18.582;2022-12-18T05:06:06;24.38;;;10.85;;
48363;SDS011;34170;54.364;18.582;2022-12-18T05:08:34;23.40;;;10.10;;
48363;SDS011;34170;54.364;18.582;2022-12-18T05:11:05;30.75;;;10.65;;
48363;SDS011;34170;54.364;18.582;2022-12-18T05:13:36;28.00;;;10.95;;
48363;SDS011;34170;54.364;18.582;2022-12-18T05:16:05;33.72;;;11.07;;
48363;SDS011;34170;54.364;18.582;2022-12-18T05:18:34;28.25;;;10.73;;
48363;SDS011;34170;54.364;18.582;2022-12-18T05:21:02;26.17;;;11.02;;
48363;SDS011;34170;54.364;18.582;2022-12-18T05:23:30;26.92;;;10.30;;
48363;SDS011;34170;54.364;18.582;2022-12-18T05:25:58;28.27;;;10.50;;
48363;SDS011;34170;54.364;18.582;2022-12-18T05:28:28;27.60;;;11.25;;
48363;SDS011;34170;54.364;18.582;2022-12-18T05:30:58;27.08;;;10.23;;
48363;SDS011;34170;54.364;18.582;2022-12-18T05:33:29;25.75;;;10.23;;
48363;SDS011;34170;54.364;18.582;2022-12-18T05:35:58;28.27;;;11.07;;
48363;SDS011;34170;54.364;18.582;2022-12-18T05:38:28;28.38;;;11.18;;
48363;SDS011;34170;54.364;18.582;2022-12-18T05:40:56;28.27;;;11.02;;
48363;SDS011;34170;54.364;18.582;2022-12-18T05:43:24;26.52;;;11.13;;
48363;SDS011;34170;54.364;18.582;2022-12-18T05:45:53;28.80;;;10.48;;
48363;SDS011;34170;54.364;18.582;2022-12-18T05:48:21;24.80;;;10.40;;
48363;SDS011;34170;54.364;18.582;2022-12-18T05:50:49;26.70;;;11.05;;
48363;SDS011;34170;54.364;18.582;2022-12-18T05:53:18;27.13;;;11.80;;
48363;SDS011;34170;54.364;18.582;2022-12-18T05:55:46;28.67;;;11.43;;
48363;SDS011;34170;54.364;18.582;2022-12-18T05:58:14;26.90;;;11.15;;
48363;SDS011;34170;54.364;18.582;2022-12-18T06:00:43;27.77;;;12.13;;
48363;SDS011;34170;54.364;18.582;2022-12-18T06:03:12;24.83;;;10.50;;
48363;SDS011;34170;54.364;18.582;2022-12-18T06:05:41;25.10;;;10.48;;
48363;SDS011;34170;54.364;18.582;2022-12-18T06:08:11;25.58;;;10.45;;
48363;SDS011;34170;54.364;18.582;2022-12-18T06:10:40;27.70;;;10.75;;
48363;SDS011;34170;54.364;18.582;2022-12-18T06:13:08;26.38;;;10.35;;
48363;SDS011;34170;54.364;18.582;2022-12-18T06:15:36;29.20;;;10.35;;
48363;SDS011;34170;54.364;18.582;2022-12-18T06:18:04;23.63;;;10.43;;
48363;SDS011;34170;54.364;18.582;2022-12-18T06:20:31;23.95;;;11.40;;
48363;SDS011;34170;54.364;18.582;2022-12-18T06:23:00;26.50;;;10.15;;
48363;SDS011;34170;54.364;18.582;2022-12-18T06:25:27;28.45;;;11.52;;
48363;SDS011;34170;54.364;18.582;2022-12-18T06:27:55;27.17;;;11.20;;
48363;SDS011;34170;54.364;18.582;2022-12-18T06:30:22;24.48;;;11.02;;
48363;SDS011;34170;54.364;18.582;2022-12-18T06:32:50;24.60;;;10.93;;
48363;SDS011;34170;54.364;18.582;2022-12-18T06:35:22;25.92;;;11.07;;
48363;SDS011;34170;54.364;18.582;2022-12-18T06:37:50;28.83;;;11.80;;
48363;SDS011;34170;54.364;18.582;2022-12-18T06:40:18;27.33;;;11.48;;
48363;SDS011;34170;54.364;18.582;2022-12-18T06:42:45;27.17;;;11.10;;
48363;SDS011;34170;54.364;18.582;2022-12-18T06:45:13;27.75;;;11.68;;
48363;SDS011;34170;54.364;18.582;2022-12-18T06:47:41;29.27;;;11.88;;
48363;SDS011;34170;54.364;18.582;2022-12-18T06:50:08;28.95;;;10.77;;
48363;SDS011;34170;54.364;18.582;2022-12-18T06:52:35;25.33;;;11.38;;
48363;SDS011;34170;54.364;18.582;2022-12-18T06:55:03;32.40;;;11.75;;
48363;SDS011;34170;54.364;18.582;2022-12-18T06:57:32;32.45;;;12.68;;
48363;SDS011;34170;54.364;18.582;2022-12-18T07:00:00;28.98;;;11.77;;
48363;SDS011;34170;54.364;18.582;2022-12-18T07:02:27;30.75;;;11.40;;
48363;SDS011;34170;54.364;18.582;2022-12-18T07:04:55;34.72;;;13.25;;
48363;SDS011;34170;54.364;18.582;2022-12-18T07:07:22;33.92;;;13.15;;
48363;SDS011;34170;54.364;18.582;2022-12-18T07:09:50;32.30;;;13.02;;
48363;SDS011;34170;54.364;18.582;2022-12-18T07:12:18;29.02;;;12.60;;
48363;SDS011;34170;54.364;18.582;2022-12-18T07:14:45;31.38;;;12.48;;
48363;SDS011;34170;54.364;18.582;2022-12-18T07:17:13;32.08;;;12.25;;
48363;SDS011;34170;54.364;18.582;2022-12-18T07:19:40;31.67;;;13.20;;
48363;SDS011;34170;54.364;18.582;2022-12-18T07:22:07;34.05;;;12.77;;
48363;SDS011;34170;54.364;18.582;2022-12-18T07:24:35;33.33;;;13.15;;
48363;SDS011;34170;54.364;18.582;2022-12-18T07:27:02;27.42;;;11.52;;
48363;SDS011;34170;54.364;18.582;2022-12-18T07:29:30;30.63;;;12.15;;
48363;SDS011;34170;54.364;18.582;2022-12-18T07:31:58;32.25;;;12.77;;
48363;SDS011;34170;54.364;18.582;2022-12-18T07:34:25;27.67;;;12.00;;
48363;SDS011;34170;54.364;18.582;2022-12-18T07:36:52;26.60;;;11.13;;
48363;SDS011;34170;54.364;18.582;2022-12-18T07:39:20;33.17;;;12.50;;
48363;SDS011;34170;54.364;18.582;2022-12-18T07:41:47;25.85;;;10.65;;
48363;SDS011;34170;54.364;18.582;2022-12-18T07:44:35;26.40;;;11.00;;
48363;SDS011;34170;54.364;18.582;2022-12-18T07:47:03;24.60;;;10.70;;
48363;SDS011;34170;54.364;18.582;2022-12-18T07:49:37;27.70;;;11.88;;
48363;SDS011;34170;54.364;18.582;2022-12-18T07:52:05;28.23;;;11.07;;
48363;SDS011;34170;54.364;18.582;2022-12-18T07:54:32;21.65;;;10.55;;
48363;SDS011;34170;54.364;18.582;2022-12-18T07:57:00;26.40;;;11.07;;
48363;SDS011;34170;54.364;18.582;2022-12-18T07:59:27;26.17;;;9.93;;
48363;SDS011;34170;54.364;18.582;2022-12-18T08:01:54;23.52;;;10.60;;
48363;SDS011;34170;54.364;18.582;2022-12-18T08:04:22;25.10;;;10.95;;
48363;SDS011;34170;54.364;18.582;2022-12-18T08:06:50;27.48;;;11.20;;
48363;SDS011;34170;54.364;18.582;2022-12-18T08:09:17;22.50;;;10.00;;
48363;SDS011;34170;54.364;18.582;2022-12-18T08:11:45;24.40;;;9.93;;
48363;SDS011;34170;54.364;18.582;2022-12-18T08:14:12;24.58;;;9.90;;
48363;SDS011;34170;54.364;18.582;2022-12-18T08:16:40;25.08;;;10.25;;
48363;SDS011;34170;54.364;18.582;2022-12-18T08:19:08;23.55;;;10.32;;
48363;SDS011;34170;54.364;18.582;2022-12-18T08:21:35;21.75;;;9.57;;
48363;SDS011;34170;54.364;18.582;2022-12-18T08:24:04;21.05;;;9.70;;
48363;SDS011;34170;54.364;18.582;2022-12-18T08:26:32;22.73;;;9.38;;
48363;SDS011;34170;54.364;18.582;2022-12-18T08:28:59;21.10;;;9.65;;
48363;SDS011;34170;54.364;18.582;2022-12-18T08:31:28;20.08;;;8.98;;
48363;SDS011;34170;54.364;18.582;2022-12-18T08:33:56;21.38;;;8.43;;
48363;SDS011;34170;54.364;18.582;2022-12-18T08:36:24;19.55;;;8.23;;
48363;SDS011;34170;54.364;18.582;2022-12-18T08:38:53;16.90;;;7.78;;
48363;SDS011;34170;54.364;18.582;2022-12-18T08:41:20;19.60;;;8.40;;
48363;SDS011;34170;54.364;18.582;2022-12-18T08:43:48;20.05;;;8.43;;
48363;SDS011;34170;54.364;18.582;2022-12-18T08:46:36;17.95;;;8.02;;
48363;SDS011;34170;54.364;18.582;2022-12-18T08:49:06;16.63;;;7.35;;
48363;SDS011;34170;54.364;18.582;2022-12-18T08:51:35;21.63;;;9.02;;
48363;SDS011;34170;54.364;18.582;2022-12-18T08:54:03;17.27;;;8.10;;
48363;SDS011;34170;54.364;18.582;2022-12-18T08:56:32;16.70;;;7.82;;
48363;SDS011;34170;54.364;18.582;2022-12-18T08:59:01;17.30;;;8.07;;
48363;SDS011;34170;54.364;18.582;2022-12-18T09:01:29;18.98;;;8.10;;
48363;SDS011;34170;54.364;18.582;2022-12-18T09:03:57;17.88;;;8.05;;
48363;SDS011;34170;54.364;18.582;2022-12-18T09:06:24;17.27;;;7.80;;
48363;SDS011;34170;54.364;18.582;2022-12-18T09:08:53;17.00;;;7.18;;
48363;SDS011;34170;54.364;18.582;2022-12-18T09:11:21;17.98;;;8.20;;
48363;SDS011;34170;54.364;18.582;2022-12-18T09:13:51;20.02;;;7.82;;
48363;SDS011;34170;54.364;18.582;2022-12-18T09:16:21;14.82;;;7.57;;
48363;SDS011;34170;54.364;18.582;2022-12-18T09:18:58;15.90;;;7.60;;
48363;SDS011;34170;54.364;18.582;2022-12-18T09:21:30;15.57;;;7.78;;
48363;SDS011;34170;54.364;18.582;2022-12-18T09:24:03;17.70;;;8.10;;
48363;SDS011;34170;54.364;18.582;2022-12-18T09:29:03;15.93;;;7.32;;
48363;SDS011;34170;54.364;18.582;2022-12-18T09:31:30;17.63;;;7.72;;
48363;SDS011;34170;54.364;18.582;2022-12-18T09:33:58;17.23;;;7.88;;
48363;SDS011;34170;54.364;18.582;2022-12-18T09:36:25;19.80;;;7.85;;
48363;SDS011;34170;54.364;18.582;2022-12-18T09:38:54;20.45;;;8.57;;
48363;SDS011;34170;54.364;18.582;2022-12-18T09:49:43;16.80;;;8.07;;
48363;SDS011;34170;54.364;18.582;2022-12-18T09:52:14;18.95;;;8.30;;
48363;SDS011;34170;54.364;18.582;2022-12-18T09:54:44;18.75;;;8.43;;
48363;SDS011;34170;54.364;18.582;2022-12-18T09:57:18;18.73;;;7.50;;
48363;SDS011;34170;54.364;18.582;2022-12-18T09:59:53;20.85;;;8.27;;
48363;SDS011;34170;54.364;18.582;2022-12-18T10:02:24;22.02;;;8.05;;
48363;SDS011;34170;54.364;18.582;2022-12-18T10:05:03;19.98;;;7.65;;
48363;SDS011;34170;54.364;18.582;2022-12-18T10:08:05;19.02;;;8.20;;
48363;SDS011;34170;54.364;18.582;2022-12-18T10:10:50;20.08;;;8.65;;
48363;SDS011;34170;54.364;18.582;2022-12-18T10:21:34;21.45;;;8.55;;
48363;SDS011;34170;54.364;18.582;2022-12-18T10:26:45;16.90;;;7.63;;
48363;SDS011;34170;54.364;18.582;2022-12-18T10:29:15;16.52;;;7.32;;
48363;SDS011;34170;54.364;18.582;2022-12-18T10:31:43;16.98;;;7.75;;
48363;SDS011;34170;54.364;18.582;2022-12-18T10:34:11;17.83;;;7.43;;
48363;SDS011;34170;54.364;18.582;2022-12-18T10:36:39;16.65;;;7.05;;
48363;SDS011;34170;54.364;18.582;2022-12-18T10:39:19;18.23;;;7.05;;
48363;SDS011;34170;54.364;18.582;2022-12-18T10:41:49;19.05;;;7.25;;
48363;SDS011;34170;54.364;18.582;2022-12-18T10:44:23;18.85;;;7.30;;
48363;SDS011;34170;54.364;18.582;2022-12-18T10:46:55;17.55;;;7.32;;
48363;SDS011;34170;54.364;18.582;2022-12-18T10:49:37;16.50;;;7.15;;
48363;SDS011;34170;54.364;18.582;2022-12-18T10:54:58;16.65;;;7.38;;
48363;SDS011;34170;54.364;18.582;2022-12-18T10:57:32;16.85;;;7.55;;
48363;SDS011;34170;54.364;18.582;2022-12-18T11:00:20;14.63;;;7.43;;
48363;SDS011;34170;54.364;18.582;2022-12-18T11:02:48;14.82;;;6.38;;
48363;SDS011;34170;54.364;18.582;2022-12-18T11:07:58;16.80;;;6.70;;
48363;SDS011;34170;54.364;18.582;2022-12-18T11:10:31;16.60;;;6.70;;
48363;SDS011;34170;54.364;18.582;2022-12-18T11:13:16;15.45;;;6.43;;
48363;SDS011;34170;54.364;18.582;2022-12-18T11:15:47;15.30;;;6.38;;
48363;SDS011;34170;54.364;18.582;2022-12-18T11:21:15;17.50;;;7.38;;
48363;SDS011;34170;54.364;18.582;2022-12-18T11:23:50;15.98;;;7.10;;
48363;SDS011;34170;54.364;18.582;2022-12-18T11:26:19;18.55;;;7.20;;
48363;SDS011;34170;54.364;18.582;2022-12-18T11:28:52;18.20;;;6.90;;
48363;SDS011;34170;54.364;18.582;2022-12-18T11:31:36;15.70;;;6.38;;
48363;SDS011;34170;54.364;18.582;2022-12-18T11:36:58;15.55;;;6.05;;
48363;SDS011;34170;54.364;18.582;2022-12-18T11:44:51;13.75;;;5.72;;
48363;SDS011;34170;54.364;18.582;2022-12-18T11:50:02;13.75;;;5.72;;
48363;SDS011;34170;54.364;18.582;2022-12-18T11:52:38;12.48;;;5.03;;
48363;SDS011;34170;54.364;18.582;2022-12-18T11:55:10;14.50;;;6.20;;
48363;SDS011;34170;54.364;18.582;2022-12-18T11:57:45;15.93;;;6.10;;
48363;SDS011;34170;54.364;18.582;2022-12-18T12:16:15;12.40;;;4.55;;
48363;SDS011;34170;54.364;18.582;2022-12-18T12:19:04;13.70;;;5.25;;
48363;SDS011;34170;54.364;18.582;2022-12-18T12:22:35;11.63;;;4.93;;
48363;SDS011;34170;54.364;18.582;2022-12-18T12:30:21;14.43;;;5.30;;
48363;SDS011;34170;54.364;18.582;2022-12-18T12:35:54;9.60;;;4.38;;
48363;SDS011;34170;54.364;18.582;2022-12-18T12:38:44;11.18;;;4.22;;
48363;SDS011;34170;54.364;18.582;2022-12-18T12:41:19;12.77;;;5.18;;
48363;SDS011;34170;54.364;18.582;2022-12-18T12:44:27;13.05;;;4.45;;
48363;SDS011;34170;54.364;18.582;2022-12-18T12:47:01;12.07;;;4.78;;
48363;SDS011;34170;54.364;18.582;2022-12-18T12:49:38;13.60;;;4.97;;
48363;SDS011;34170;54.364;18.582;2022-12-18T12:52:13;13.20;;;4.43;;
48363;SDS011;34170;54.364;18.582;2022-12-18T12:54:43;14.00;;;4.85;;
48363;SDS011;34170;54.364;18.582;2022-12-18T12:57:15;12.35;;;5.38;;
48363;SDS011;34170;54.364;18.582;2022-12-18T13:05:23;12.77;;;5.35;;
48363;SDS011;34170;54.364;18.582;2022-12-18T13:07:59;10.43;;;4.18;;
48363;SDS011;34170;54.364;18.582;2022-12-18T13:10:34;8.77;;;3.42;;
48363;SDS011;34170;54.364;18.582;2022-12-18T13:13:14;10.10;;;3.90;;
48363;SDS011;34170;54.364;18.582;2022-12-18T13:16:03;11.05;;;3.80;;
48363;SDS011;34170;54.364;18.582;2022-12-18T13:18:33;8.13;;;3.58;;
48363;SDS011;34170;54.364;18.582;2022-12-18T13:21:18;10.75;;;3.63;;
48363;SDS011;34170;54.364;18.582;2022-12-18T13:23:51;12.95;;;4.32;;
48363;SDS011;34170;54.364;18.582;2022-12-18T13:28:54;14.85;;;5.90;;
48363;SDS011;34170;54.364;18.582;2022-12-18T13:34:21;10.00;;;4.25;;
48363;SDS011;34170;54.364;18.582;2022-12-18T13:36:54;15.10;;;5.43;;
48363;SDS011;34170;54.364;18.582;2022-12-18T13:39:24;12.73;;;4.60;;
48363;SDS011;34170;54.364;18.582;2022-12-18T13:44:36;16.05;;;5.47;;
48363;SDS011;34170;54.364;18.582;2022-12-18T13:47:33;11.00;;;4.20;;
48363;SDS011;34170;54.364;18.582;2022-12-18T13:53:02;13.20;;;5.60;;
48363;SDS011;34170;54.364;18.582;2022-12-18T13:55:32;14.75;;;5.45;;
48363;SDS011;34170;54.364;18.582;2022-12-18T13:58:03;14.40;;;5.72;;
48363;SDS011;34170;54.364;18.582;2022-12-18T14:00:32;15.15;;;6.47;;
48363;SDS011;34170;54.364;18.582;2022-12-18T14:02:59;14.85;;;5.15;;
48363;SDS011;34170;54.364;18.582;2022-12-18T14:05:32;14.65;;;5.70;;
48363;SDS011;34170;54.364;18.582;2022-12-18T14:08:05;15.38;;;5.35;;
48363;SDS011;34170;54.364;18.582;2022-12-18T14:10:40;14.43;;;6.82;;
48363;SDS011;34170;54.364;18.582;2022-12-18T14:13:19;13.00;;;6.07;;
48363;SDS011;34170;54.364;18.582;2022-12-18T14:15:51;14.13;;;5.80;;
48363;SDS011;34170;54.364;18.582;2022-12-18T14:18:20;13.18;;;5.57;;
48363;SDS011;34170;54.364;18.582;2022-12-18T14:20:52;15.25;;;5.95;;
48363;SDS011;34170;54.364;18.582;2022-12-18T14:23:34;15.80;;;5.82;;
48363;SDS011;34170;54.364;18.582;2022-12-18T14:26:19;15.90;;;6.07;;
48363;SDS011;34170;54.364;18.582;2022-12-18T14:28:49;12.52;;;5.40;;
48363;SDS011;34170;54.364;18.582;2022-12-18T14:31:18;13.57;;;5.38;;
48363;SDS011;34170;54.364;18.582;2022-12-18T14:33:47;17.63;;;6.28;;
48363;SDS011;34170;54.364;18.582;2022-12-18T14:36:16;13.18;;;6.50;;
48363;SDS011;34170;54.364;18.582;2022-12-18T14:38:49;13.52;;;5.72;;
48363;SDS011;34170;54.364;18.582;2022-12-18T14:41:21;14.52;;;5.80;;
48363;SDS011;34170;54.364;18.582;2022-12-18T14:43:50;13.80;;;6.18;;
48363;SDS011;34170;54.364;18.582;2022-12-18T14:46:26;11.85;;;5.82;;
48363;SDS011;34170;54.364;18.582;2022-12-18T14:52:04;14.50;;;6.30;;
48363;SDS011;34170;54.364;18.582;2022-12-18T14:54:34;12.63;;;5.15;;
48363;SDS011;34170;54.364;18.582;2022-12-18T14:57:05;15.90;;;5.75;;
48363;SDS011;34170;54.364;18.582;2022-12-18T14:59:43;17.75;;;6.57;;
48363;SDS011;34170;54.364;18.582;2022-12-18T15:02:21;21.38;;;6.72;;
48363;SDS011;34170;54.364;18.582;2022-12-18T15:05:00;16.13;;;6.32;;
48363;SDS011;34170;54.364;18.582;2022-12-18T15:07:42;19.48;;;7.05;;
48363;SDS011;34170;54.364;18.582;2022-12-18T15:13:07;19.85;;;7.03;;
48363;SDS011;34170;54.364;18.582;2022-12-18T15:20:41;17.75;;;7.07;;
48363;SDS011;34170;54.364;18.582;2022-12-18T15:25:43;17.27;;;6.93;;
48363;SDS011;34170;54.364;18.582;2022-12-18T15:28:21;15.93;;;5.93;;
48363;SDS011;34170;54.364;18.582;2022-12-18T15:31:03;20.33;;;6.97;;
48363;SDS011;34170;54.364;18.582;2022-12-18T15:33:36;16.40;;;6.45;;
48363;SDS011;34170;54.364;18.582;2022-12-18T15:36:10;19.20;;;7.28;;
48363;SDS011;34170;54.364;18.582;2022-12-18T15:38:40;23.02;;;7.85;;
48363;SDS011;34170;54.364;18.582;2022-12-18T15:41:12;20.58;;;8.23;;
48363;SDS011;34170;54.364;18.582;2022-12-18T15:43:47;20.45;;;6.45;;
48363;SDS011;34170;54.364;18.582;2022-12-18T15:46:18;16.40;;;7.00;;
48363;SDS011;34170;54.364;18.582;2022-12-18T15:48:48;18.90;;;7.97;;
48363;SDS011;34170;54.364;18.582;2022-12-18T15:51:37;23.90;;;8.60;;
48363;SDS011;34170;54.364;18.582;2022-12-18T15:54:06;26.83;;;9.27;;
48363;SDS011;34170;54.364;18.582;2022-12-18T15:56:39;28.20;;;10.07;;
48363;SDS011;34170;54.364;18.582;2022-12-18T15:59:25;20.73;;;8.35;;
48363;SDS011;34170;54.364;18.582;2022-12-18T16:01:53;30.48;;;10.52;;
48363;SDS011;34170;54.364;18.582;2022-12-18T16:04:21;25.52;;;9.88;;
48363;SDS011;34170;54.364;18.582;2022-12-18T16:06:50;29.85;;;10.90;;
48363;SDS011;34170;54.364;18.582;2022-12-18T16:09:38;25.80;;;10.38;;
48363;SDS011;34170;54.364;18.582;2022-12-18T16:12:06;29.33;;;11.43;;
48363;SDS011;34170;54.364;18.582;2022-12-18T16:14:44;27.20;;;10.73;;
48363;SDS011;34170;54.364;18.582;2022-12-18T16:17:13;29.98;;;12.18;;
48363;SDS011;34170;54.364;18.582;2022-12-18T16:19:41;29.33;;;11.50;;
48363;SDS011;34170;54.364;18.582;2022-12-18T16:22:18;27.42;;;10.38;;
48363;SDS011;34170;54.364;18.582;2022-12-18T16:24:51;27.60;;;10.07;;
48363;SDS011;34170;54.364;18.582;2022-12-18T16:27:19;28.15;;;9.30;;
48363;SDS011;34170;54.364;18.582;2022-12-18T16:29:47;28.45;;;9.55;;
48363;SDS011;34170;54.364;18.582;2022-12-18T16:32:16;25.38;;;8.55;;
48363;SDS011;34170;54.364;18.582;2022-12-18T16:34:46;23.52;;;8.82;;
48363;SDS011;34170;54.364;18.582;2022-12-18T16:37:14;24.67;;;8.70;;
48363;SDS011;34170;54.364;18.582;2022-12-18T16:39:42;22.88;;;9.43;;
48363;SDS011;34170;54.364;18.582;2022-12-18T16:42:14;21.80;;;8.45;;
48363;SDS011;34170;54.364;18.582;2022-12-18T16:44:47;24.02;;;8.50;;
48363;SDS011;34170;54.364;18.582;2022-12-18T16:47:16;22.77;;;8.10;;
48363;SDS011;34170;54.364;18.582;2022-12-18T16:49:44;25.67;;;8.90;;